sensor_id;sensor_type;location;lat;lon;timestamp;P1;P2;P0
81998;PMS5003;71598;46.516;-122.928;2023-12-20T00:00:33;44;41;
81998;PMS5003;71598;46.516;-122.928;2023-12-20T00:02:59;47;45;
81998;PMS5003;71598;46.516;-122.928;2023-12-20T00:05:24;45;44;
81998;PMS5003;71598;46.516;-122.928;2023-12-20T00:07:49;48;48;
81998;PMS5003;71598;46.516;-122.928;2023-12-20T00:10:15;50;48;
81998;PMS5003;71598;46.516;-122.928;2023-12-20T00:12:40;49;47;
81998;PMS5003;71598;46.516;-122.928;2023-12-20T00:15:05;45;44;
81998;PMS5003;71598;46.516;-122.928;2023-12-20T00:17:30;50;47;
81998;PMS5003;71598;46.516;-122.928;2023-12-20T00:19:56;55;52;
81998;PMS5003;71598;46.516;-122.928;2023-12-20T00:22:22;58;56;
81998;PMS5003;71598;46.516;-122.928;2023-12-20T00:24:48;51;49;
81998;PMS5003;71598;46.516;-122.928;2023-12-20T00:27:13;62;58;
81998;PMS5003;71598;46.516;-122.928;2023-12-20T00:29:38;66;65;
81998;PMS5003;71598;46.516;-122.928;2023-12-20T00:32:04;68;63;
81998;PMS5003;71598;46.516;-122.928;2023-12-20T00:34:29;60;59;
81998;PMS5003;71598;46.516;-122.928;2023-12-20T00:36:54;60;59;
81998;PMS5003;71598;46.516;-122.928;2023-12-20T00:39:20;56;53;
81998;PMS5003;71598;46.516;-122.928;2023-12-20T00:41:45;67;63;
81998;PMS5003;71598;46.516;-122.928;2023-12-20T00:44:11;60;58;
81998;PMS5003;71598;46.516;-122.928;2023-12-20T00:46:36;69;66;
81998;PMS5003;71598;46.516;-122.928;2023-12-20T00:49:01;66;65;
81998;PMS5003;71598;46.516;-122.928;2023-12-20T00:51:28;73;71;
81998;PMS5003;71598;46.516;-122.928;2023-12-20T00:53:52;74;72;
81998;PMS5003;71598;46.516;-122.928;2023-12-20T00:56:18;71;69;
81998;PMS5003;71598;46.516;-122.928;2023-12-20T00:58:44;77;73;
81998;PMS5003;71598;46.516;-122.928;2023-12-20T01:01:09;74;73;
81998;PMS5003;71598;46.516;-122.928;2023-12-20T01:03:35;77;76;
81998;PMS5003;71598;46.516;-122.928;2023-12-20T01:06:00;81;80;
81998;PMS5003;71598;46.516;-122.928;2023-12-20T01:08:26;75;73;
81998;PMS5003;71598;46.516;-122.928;2023-12-20T01:10:52;83;78;
81998;PMS5003;71598;46.516;-122.928;2023-12-20T01:13:17;79;76;
81998;PMS5003;71598;46.516;-122.928;2023-12-20T01:15:43;81;81;
81998;PMS5003;71598;46.516;-122.928;2023-12-20T01:18:09;80;79;
81998;PMS5003;71598;46.516;-122.928;2023-12-20T01:20:34;88;86;
81998;PMS5003;71598;46.516;-122.928;2023-12-20T01:23:00;88;85;
81998;PMS5003;71598;46.516;-122.928;2023-12-20T01:25:25;88;84;
81998;PMS5003;71598;46.516;-122.928;2023-12-20T01:27:51;82;81;
81998;PMS5003;71598;46.516;-122.928;2023-12-20T01:30:17;89;87;
81998;PMS5003;71598;46.516;-122.928;2023-12-20T01:32:42;84;80;
81998;PMS5003;71598;46.516;-122.928;2023-12-20T01:35:08;77;75;
81998;PMS5003;71598;46.516;-122.928;2023-12-20T01:37:33;82;78;
81998;PMS5003;71598;46.516;-122.928;2023-12-20T01:39:58;80;77;
81998;PMS5003;71598;46.516;-122.928;2023-12-20T01:42:23;86;84;
81998;PMS5003;71598;46.516;-122.928;2023-12-20T01:44:49;83;81;
81998;PMS5003;71598;46.516;-122.928;2023-12-20T01:47:15;84;78;
81998;PMS5003;71598;46.516;-122.928;2023-12-20T01:49:40;94;90;
81998;PMS5003;71598;46.516;-122.928;2023-12-20T01:52:07;87;85;
81998;PMS5003;71598;46.516;-122.928;2023-12-20T01:54:31;87;84;
81998;PMS5003;71598;46.516;-122.928;2023-12-20T01:56:57;89;84;
81998;PMS5003;71598;46.516;-122.928;2023-12-20T01:59:22;87;86;
81998;PMS5003;71598;46.516;-122.928;2023-12-20T02:01:48;84;77;
81998;PMS5003;71598;46.516;-122.928;2023-12-20T02:04:13;86;81;
81998;PMS5003;71598;46.516;-122.928;2023-12-20T02:06:38;85;81;
81998;PMS5003;71598;46.516;-122.928;2023-12-20T02:09:04;88;87;
81998;PMS5003;71598;46.516;-122.928;2023-12-20T02:11:29;85;85;
81998;PMS5003;71598;46.516;-122.928;2023-12-20T02:13:54;80;77;
81998;PMS5003;71598;46.516;-122.928;2023-12-20T02:16:20;83;80;
81998;PMS5003;71598;46.516;-122.928;2023-12-20T02:18:45;81;76;
81998;PMS5003;71598;46.516;-122.928;2023-12-20T02:21:10;83;77;
81998;PMS5003;71598;46.516;-122.928;2023-12-20T02:23:36;84;83;
81998;PMS5003;71598;46.516;-122.928;2023-12-20T02:26:01;78;77;
81998;PMS5003;71598;46.516;-122.928;2023-12-20T02:28:28;87;81;
81998;PMS5003;71598;46.516;-122.928;2023-12-20T02:30:52;80;78;
81998;PMS5003;71598;46.516;-122.928;2023-12-20T02:33:17;149;145;
81998;PMS5003;71598;46.516;-122.928;2023-12-20T02:35:43;199;194;
81998;PMS5003;71598;46.516;-122.928;2023-12-20T02:38:08;266;254;
81998;PMS5003;71598;46.516;-122.928;2023-12-20T02:40:33;310;300;
81998;PMS5003;71598;46.516;-122.928;2023-12-20T02:42:59;1126;990;
81998;PMS5003;71598;46.516;-122.928;2023-12-20T02:45:24;1122;973;
81998;PMS5003;71598;46.516;-122.928;2023-12-20T02:47:50;1254;1075;
81998;PMS5003;71598;46.516;-122.928;2023-12-20T02:50:15;1288;1146;
81998;PMS5003;71598;46.516;-122.928;2023-12-20T02:52:44;1293;1115;
81998;PMS5003;71598;46.516;-122.928;2023-12-20T02:55:08;1408;1246;
81998;PMS5003;71598;46.516;-122.928;2023-12-20T02:57:31;1430;1293;
81998;PMS5003;71598;46.516;-122.928;2023-12-20T02:59:57;1439;1292;
81998;PMS5003;71598;46.516;-122.928;2023-12-20T03:02:22;1407;1248;
81998;PMS5003;71598;46.516;-122.928;2023-12-20T03:04:48;1424;1278;
81998;PMS5003;71598;46.516;-122.928;2023-12-20T03:07:13;1311;1206;
81998;PMS5003;71598;46.516;-122.928;2023-12-20T03:09:38;1304;1184;
81998;PMS5003;71598;46.516;-122.928;2023-12-20T03:12:04;1244;1134;
81998;PMS5003;71598;46.516;-122.928;2023-12-20T03:14:29;1179;1081;
81998;PMS5003;71598;46.516;-122.928;2023-12-20T03:16:54;1122;1026;
81998;PMS5003;71598;46.516;-122.928;2023-12-20T03:19:21;1124;1031;
81998;PMS5003;71598;46.516;-122.928;2023-12-20T03:21:45;1137;1053;
81998;PMS5003;71598;46.516;-122.928;2023-12-20T03:24:11;1121;1031;
81998;PMS5003;71598;46.516;-122.928;2023-12-20T03:26:36;1055;991;
81998;PMS5003;71598;46.516;-122.928;2023-12-20T03:29:02;1005;939;
81998;PMS5003;71598;46.516;-122.928;2023-12-20T03:31:27;1007;947;
81998;PMS5003;71598;46.516;-122.928;2023-12-20T03:33:52;1006;934;
81998;PMS5003;71598;46.516;-122.928;2023-12-20T03:36:18;1025;950;
81998;PMS5003;71598;46.516;-122.928;2023-12-20T03:38:43;999;910;
81998;PMS5003;71598;46.516;-122.928;2023-12-20T03:41:08;994;931;
81998;PMS5003;71598;46.516;-122.928;2023-12-20T03:43:34;977;896;
81998;PMS5003;71598;46.516;-122.928;2023-12-20T03:45:59;954;900;
81998;PMS5003;71598;46.516;-122.928;2023-12-20T03:48:25;944;879;
81998;PMS5003;71598;46.516;-122.928;2023-12-20T03:50:50;936;875;
81998;PMS5003;71598;46.516;-122.928;2023-12-20T03:53:16;908;861;
81998;PMS5003;71598;46.516;-122.928;2023-12-20T03:55:42;910;849;
81998;PMS5003;71598;46.516;-122.928;2023-12-20T03:58:07;899;844;
81998;PMS5003;71598;46.516;-122.928;2023-12-20T04:00:32;900;838;
81998;PMS5003;71598;46.516;-122.928;2023-12-20T04:02:57;906;858;
81998;PMS5003;71598;46.516;-122.928;2023-12-20T04:05:23;944;885;
81998;PMS5003;71598;46.516;-122.928;2023-12-20T04:07:48;881;838;
81998;PMS5003;71598;46.516;-122.928;2023-12-20T04:10:13;863;812;
81998;PMS5003;71598;46.516;-122.928;2023-12-20T04:12:39;889;841;
81998;PMS5003;71598;46.516;-122.928;2023-12-20T04:15:04;866;808;
81998;PMS5003;71598;46.516;-122.928;2023-12-20T04:17:29;835;795;
81998;PMS5003;71598;46.516;-122.928;2023-12-20T04:19:55;864;809;
81998;PMS5003;71598;46.516;-122.928;2023-12-20T04:22:20;864;808;
81998;PMS5003;71598;46.516;-122.928;2023-12-20T04:24:46;823;774;
81998;PMS5003;71598;46.516;-122.928;2023-12-20T04:27:11;779;750;
81998;PMS5003;71598;46.516;-122.928;2023-12-20T04:29:37;758;711;
81998;PMS5003;71598;46.516;-122.928;2023-12-20T04:32:04;742;691;
81998;PMS5003;71598;46.516;-122.928;2023-12-20T04:34:28;739;710;
81998;PMS5003;71598;46.516;-122.928;2023-12-20T04:36:54;735;690;
81998;PMS5003;71598;46.516;-122.928;2023-12-20T04:39:19;721;697;
81998;PMS5003;71598;46.516;-122.928;2023-12-20T04:41:45;694;657;
81998;PMS5003;71598;46.516;-122.928;2023-12-20T04:44:10;694;659;
81998;PMS5003;71598;46.516;-122.928;2023-12-20T04:46:35;717;673;
81998;PMS5003;71598;46.516;-122.928;2023-12-20T04:49:01;670;636;
81998;PMS5003;71598;46.516;-122.928;2023-12-20T04:51:26;707;664;
81998;PMS5003;71598;46.516;-122.928;2023-12-20T04:53:51;701;660;
81998;PMS5003;71598;46.516;-122.928;2023-12-20T04:56:17;696;656;
81998;PMS5003;71598;46.516;-122.928;2023-12-20T04:58:42;688;656;
81998;PMS5003;71598;46.516;-122.928;2023-12-20T05:01:08;626;608;
81998;PMS5003;71598;46.516;-122.928;2023-12-20T05:03:33;646;620;
81998;PMS5003;71598;46.516;-122.928;2023-12-20T05:05:59;633;604;
81998;PMS5003;71598;46.516;-122.928;2023-12-20T05:08:25;627;607;
81998;PMS5003;71598;46.516;-122.928;2023-12-20T05:10:50;641;617;
81998;PMS5003;71598;46.516;-122.928;2023-12-20T05:13:16;606;586;
81998;PMS5003;71598;46.516;-122.928;2023-12-20T05:15:41;601;572;
81998;PMS5003;71598;46.516;-122.928;2023-12-20T05:18:07;611;588;
81998;PMS5003;71598;46.516;-122.928;2023-12-20T05:20:32;629;598;
81998;PMS5003;71598;46.516;-122.928;2023-12-20T05:22:58;611;586;
81998;PMS5003;71598;46.516;-122.928;2023-12-20T05:25:23;634;597;
81998;PMS5003;71598;46.516;-122.928;2023-12-20T05:27:49;584;569;
81998;PMS5003;71598;46.516;-122.928;2023-12-20T05:30:14;609;590;
81998;PMS5003;71598;46.516;-122.928;2023-12-20T05:32:39;620;590;
81998;PMS5003;71598;46.516;-122.928;2023-12-20T05:35:06;590;572;
81998;PMS5003;71598;46.516;-122.928;2023-12-20T05:37:30;603;577;
81998;PMS5003;71598;46.516;-122.928;2023-12-20T05:39:56;568;548;
81998;PMS5003;71598;46.516;-122.928;2023-12-20T05:42:21;577;541;
81998;PMS5003;71598;46.516;-122.928;2023-12-20T05:44:47;565;537;
81998;PMS5003;71598;46.516;-122.928;2023-12-20T05:47:12;534;519;
81998;PMS5003;71598;46.516;-122.928;2023-12-20T05:49:39;541;527;
81998;PMS5003;71598;46.516;-122.928;2023-12-20T05:52:04;556;535;
81998;PMS5003;71598;46.516;-122.928;2023-12-20T05:54:29;532;512;
81998;PMS5003;71598;46.516;-122.928;2023-12-20T05:56:55;532;504;
81998;PMS5003;71598;46.516;-122.928;2023-12-20T05:59:20;538;511;
81998;PMS5003;71598;46.516;-122.928;2023-12-20T06:01:45;536;513;
81998;PMS5003;71598;46.516;-122.928;2023-12-20T06:04:11;539;515;
81998;PMS5003;71598;46.516;-122.928;2023-12-20T06:06:40;534;512;
81998;PMS5003;71598;46.516;-122.928;2023-12-20T06:09:02;526;505;
81998;PMS5003;71598;46.516;-122.928;2023-12-20T06:11:27;531;507;
81998;PMS5003;71598;46.516;-122.928;2023-12-20T06:13:52;524;506;
81998;PMS5003;71598;46.516;-122.928;2023-12-20T06:16:19;531;501;
81998;PMS5003;71598;46.516;-122.928;2023-12-20T06:18:44;514;493;
81998;PMS5003;71598;46.516;-122.928;2023-12-20T06:21:09;519;498;
81998;PMS5003;71598;46.516;-122.928;2023-12-20T06:23:35;522;496;
81998;PMS5003;71598;46.516;-122.928;2023-12-20T06:26:00;500;472;
81998;PMS5003;71598;46.516;-122.928;2023-12-20T06:28:26;502;481;
81998;PMS5003;71598;46.516;-122.928;2023-12-20T06:30:51;497;469;
81998;PMS5003;71598;46.516;-122.928;2023-12-20T06:33:16;493;473;
81998;PMS5003;71598;46.516;-122.928;2023-12-20T06:35:41;485;470;
81998;PMS5003;71598;46.516;-122.928;2023-12-20T06:38:07;376;362;
81998;PMS5003;71598;46.516;-122.928;2023-12-20T06:40:32;436;425;
81998;PMS5003;71598;46.516;-122.928;2023-12-20T06:42:58;466;446;
81998;PMS5003;71598;46.516;-122.928;2023-12-20T06:45:24;475;444;
81998;PMS5003;71598;46.516;-122.928;2023-12-20T06:47:49;489;461;
81998;PMS5003;71598;46.516;-122.928;2023-12-20T06:50:16;472;452;
81998;PMS5003;71598;46.516;-122.928;2023-12-20T06:52:40;475;457;
81998;PMS5003;71598;46.516;-122.928;2023-12-20T06:55:06;466;443;
81998;PMS5003;71598;46.516;-122.928;2023-12-20T06:57:32;464;440;
81998;PMS5003;71598;46.516;-122.928;2023-12-20T06:59:57;476;455;
81998;PMS5003;71598;46.516;-122.928;2023-12-20T07:02:22;474;449;
81998;PMS5003;71598;46.516;-122.928;2023-12-20T07:04:47;468;437;
81998;PMS5003;71598;46.516;-122.928;2023-12-20T07:07:12;461;441;
81998;PMS5003;71598;46.516;-122.928;2023-12-20T07:09:38;442;425;
81998;PMS5003;71598;46.516;-122.928;2023-12-20T07:12:04;448;426;
81998;PMS5003;71598;46.516;-122.928;2023-12-20T07:14:29;465;441;
81998;PMS5003;71598;46.516;-122.928;2023-12-20T07:16:54;446;434;
81998;PMS5003;71598;46.516;-122.928;2023-12-20T07:19:20;440;420;
81998;PMS5003;71598;46.516;-122.928;2023-12-20T07:21:46;445;430;
81998;PMS5003;71598;46.516;-122.928;2023-12-20T07:24:11;443;417;
81998;PMS5003;71598;46.516;-122.928;2023-12-20T07:26:36;448;431;
81998;PMS5003;71598;46.516;-122.928;2023-12-20T07:29:02;438;418;
81998;PMS5003;71598;46.516;-122.928;2023-12-20T07:31:27;446;420;
81998;PMS5003;71598;46.516;-122.928;2023-12-20T07:33:53;452;426;
81998;PMS5003;71598;46.516;-122.928;2023-12-20T07:36:19;448;425;
81998;PMS5003;71598;46.516;-122.928;2023-12-20T07:38:44;432;410;
81998;PMS5003;71598;46.516;-122.928;2023-12-20T07:41:09;422;409;
81998;PMS5003;71598;46.516;-122.928;2023-12-20T07:43:35;415;393;
81998;PMS5003;71598;46.516;-122.928;2023-12-20T07:46:04;418;404;
81998;PMS5003;71598;46.516;-122.928;2023-12-20T07:48:26;429;402;
81998;PMS5003;71598;46.516;-122.928;2023-12-20T07:50:52;413;398;
81998;PMS5003;71598;46.516;-122.928;2023-12-20T07:53:16;425;400;
81998;PMS5003;71598;46.516;-122.928;2023-12-20T07:55:42;407;394;
81998;PMS5003;71598;46.516;-122.928;2023-12-20T07:58:08;407;391;
81998;PMS5003;71598;46.516;-122.928;2023-12-20T08:00:33;412;394;
81998;PMS5003;71598;46.516;-122.928;2023-12-20T08:02:59;394;382;
81998;PMS5003;71598;46.516;-122.928;2023-12-20T08:05:24;416;392;
81998;PMS5003;71598;46.516;-122.928;2023-12-20T08:07:49;411;387;
81998;PMS5003;71598;46.516;-122.928;2023-12-20T08:10:15;405;387;
81998;PMS5003;71598;46.516;-122.928;2023-12-20T08:12:40;409;392;
81998;PMS5003;71598;46.516;-122.928;2023-12-20T08:15:05;378;363;
81998;PMS5003;71598;46.516;-122.928;2023-12-20T08:17:31;398;382;
81998;PMS5003;71598;46.516;-122.928;2023-12-20T08:19:56;411;396;
81998;PMS5003;71598;46.516;-122.928;2023-12-20T08:22:21;394;378;
81998;PMS5003;71598;46.516;-122.928;2023-12-20T08:24:46;403;385;
81998;PMS5003;71598;46.516;-122.928;2023-12-20T08:27:12;401;377;
81998;PMS5003;71598;46.516;-122.928;2023-12-20T08:29:37;406;390;
81998;PMS5003;71598;46.516;-122.928;2023-12-20T08:32:02;388;366;
81998;PMS5003;71598;46.516;-122.928;2023-12-20T08:34:27;388;373;
81998;PMS5003;71598;46.516;-122.928;2023-12-20T08:36:53;376;362;
81998;PMS5003;71598;46.516;-122.928;2023-12-20T08:39:18;387;366;
81998;PMS5003;71598;46.516;-122.928;2023-12-20T08:41:43;389;365;
81998;PMS5003;71598;46.516;-122.928;2023-12-20T08:44:09;379;362;
81998;PMS5003;71598;46.516;-122.928;2023-12-20T08:46:34;392;367;
81998;PMS5003;71598;46.516;-122.928;2023-12-20T08:48:59;372;354;
81998;PMS5003;71598;46.516;-122.928;2023-12-20T08:51:25;378;356;
81998;PMS5003;71598;46.516;-122.928;2023-12-20T08:53:50;373;366;
81998;PMS5003;71598;46.516;-122.928;2023-12-20T08:56:15;382;366;
81998;PMS5003;71598;46.516;-122.928;2023-12-20T08:58:41;380;367;
81998;PMS5003;71598;46.516;-122.928;2023-12-20T09:01:06;371;353;
81998;PMS5003;71598;46.516;-122.928;2023-12-20T09:03:31;366;356;
81998;PMS5003;71598;46.516;-122.928;2023-12-20T09:05:57;381;359;
81998;PMS5003;71598;46.516;-122.928;2023-12-20T09:08:22;375;357;
81998;PMS5003;71598;46.516;-122.928;2023-12-20T09:10:48;363;349;
81998;PMS5003;71598;46.516;-122.928;2023-12-20T09:13:14;368;351;
81998;PMS5003;71598;46.516;-122.928;2023-12-20T09:15:39;353;336;
81998;PMS5003;71598;46.516;-122.928;2023-12-20T09:18:04;362;348;
81998;PMS5003;71598;46.516;-122.928;2023-12-20T09:20:30;353;337;
81998;PMS5003;71598;46.516;-122.928;2023-12-20T09:22:55;352;344;
81998;PMS5003;71598;46.516;-122.928;2023-12-20T09:25:20;365;350;
81998;PMS5003;71598;46.516;-122.928;2023-12-20T09:27:46;357;343;
81998;PMS5003;71598;46.516;-122.928;2023-12-20T09:30:13;351;330;
81998;PMS5003;71598;46.516;-122.928;2023-12-20T09:32:37;357;345;
81998;PMS5003;71598;46.516;-122.928;2023-12-20T09:35:03;353;334;
81998;PMS5003;71598;46.516;-122.928;2023-12-20T09:37:28;349;338;
81998;PMS5003;71598;46.516;-122.928;2023-12-20T09:39:54;349;324;
81998;PMS5003;71598;46.516;-122.928;2023-12-20T09:42:21;353;345;
81998;PMS5003;71598;46.516;-122.928;2023-12-20T09:44:44;352;335;
81998;PMS5003;71598;46.516;-122.928;2023-12-20T09:47:09;346;328;
81998;PMS5003;71598;46.516;-122.928;2023-12-20T09:49:35;336;327;
81998;PMS5003;71598;46.516;-122.928;2023-12-20T09:52:00;341;327;
81998;PMS5003;71598;46.516;-122.928;2023-12-20T09:54:26;350;334;
81998;PMS5003;71598;46.516;-122.928;2023-12-20T09:56:52;340;324;
81998;PMS5003;71598;46.516;-122.928;2023-12-20T09:59:17;346;330;
81998;PMS5003;71598;46.516;-122.928;2023-12-20T10:01:43;331;322;
81998;PMS5003;71598;46.516;-122.928;2023-12-20T10:04:09;338;324;
81998;PMS5003;71598;46.516;-122.928;2023-12-20T10:06:33;336;322;
81998;PMS5003;71598;46.516;-122.928;2023-12-20T10:08:59;344;326;
81998;PMS5003;71598;46.516;-122.928;2023-12-20T10:11:25;348;332;
81998;PMS5003;71598;46.516;-122.928;2023-12-20T10:13:50;346;328;
81998;PMS5003;71598;46.516;-122.928;2023-12-20T10:16:16;324;317;
81998;PMS5003;71598;46.516;-122.928;2023-12-20T10:18:41;349;330;
81998;PMS5003;71598;46.516;-122.928;2023-12-20T10:21:07;337;322;
81998;PMS5003;71598;46.516;-122.928;2023-12-20T10:23:33;329;314;
81998;PMS5003;71598;46.516;-122.928;2023-12-20T10:25:59;326;311;
81998;PMS5003;71598;46.516;-122.928;2023-12-20T10:28:24;332;322;
81998;PMS5003;71598;46.516;-122.928;2023-12-20T10:30:49;315;296;
81998;PMS5003;71598;46.516;-122.928;2023-12-20T10:33:16;312;302;
81998;PMS5003;71598;46.516;-122.928;2023-12-20T10:35:41;319;307;
81998;PMS5003;71598;46.516;-122.928;2023-12-20T10:38:06;324;310;
81998;PMS5003;71598;46.516;-122.928;2023-12-20T10:40:31;319;302;
81998;PMS5003;71598;46.516;-122.928;2023-12-20T10:42:57;318;308;
81998;PMS5003;71598;46.516;-122.928;2023-12-20T10:45:23;334;318;
81998;PMS5003;71598;46.516;-122.928;2023-12-20T10:47:47;313;297;
81998;PMS5003;71598;46.516;-122.928;2023-12-20T10:50:13;312;293;
81998;PMS5003;71598;46.516;-122.928;2023-12-20T10:52:39;325;306;
81998;PMS5003;71598;46.516;-122.928;2023-12-20T10:55:06;331;317;
81998;PMS5003;71598;46.516;-122.928;2023-12-20T10:57:29;310;299;
81998;PMS5003;71598;46.516;-122.928;2023-12-20T10:59:55;313;304;
81998;PMS5003;71598;46.516;-122.928;2023-12-20T11:02:21;312;299;
81998;PMS5003;71598;46.516;-122.928;2023-12-20T11:04:55;319;302;
81998;PMS5003;71598;46.516;-122.928;2023-12-20T11:07:17;302;294;
81998;PMS5003;71598;46.516;-122.928;2023-12-20T11:09:38;320;306;
81998;PMS5003;71598;46.516;-122.928;2023-12-20T11:12:05;311;297;
81998;PMS5003;71598;46.516;-122.928;2023-12-20T11:14:31;306;291;
81998;PMS5003;71598;46.516;-122.928;2023-12-20T11:17:06;305;294;
81998;PMS5003;71598;46.516;-122.928;2023-12-20T11:19:18;301;290;
81998;PMS5003;71598;46.516;-122.928;2023-12-20T11:21:44;306;296;
81998;PMS5003;71598;46.516;-122.928;2023-12-20T11:24:09;307;292;
81998;PMS5003;71598;46.516;-122.928;2023-12-20T11:26:35;315;297;
81998;PMS5003;71598;46.516;-122.928;2023-12-20T11:29:45;298;285;
81998;PMS5003;71598;46.516;-122.928;2023-12-20T11:31:26;309;290;
81998;PMS5003;71598;46.516;-122.928;2023-12-20T11:33:51;299;285;
81998;PMS5003;71598;46.516;-122.928;2023-12-20T11:36:18;287;279;
81998;PMS5003;71598;46.516;-122.928;2023-12-20T11:38:50;302;284;
81998;PMS5003;71598;46.516;-122.928;2023-12-20T11:41:07;310;292;
81998;PMS5003;71598;46.516;-122.928;2023-12-20T11:43:35;295;284;
81998;PMS5003;71598;46.516;-122.928;2023-12-20T11:46:02;291;283;
81998;PMS5003;71598;46.516;-122.928;2023-12-20T11:48:23;264;257;
81998;PMS5003;71598;46.516;-122.928;2023-12-20T11:50:49;281;268;
81998;PMS5003;71598;46.516;-122.928;2023-12-20T11:53:16;275;261;
81998;PMS5003;71598;46.516;-122.928;2023-12-20T11:55:41;281;267;
81998;PMS5003;71598;46.516;-122.928;2023-12-20T11:58:06;284;269;
81998;PMS5003;71598;46.516;-122.928;2023-12-20T12:00:31;276;263;
81998;PMS5003;71598;46.516;-122.928;2023-12-20T12:02:58;267;256;
81998;PMS5003;71598;46.516;-122.928;2023-12-20T12:05:22;271;260;
81998;PMS5003;71598;46.516;-122.928;2023-12-20T12:07:47;276;263;
81998;PMS5003;71598;46.516;-122.928;2023-12-20T12:10:12;275;258;
81998;PMS5003;71598;46.516;-122.928;2023-12-20T12:12:38;265;257;
81998;PMS5003;71598;46.516;-122.928;2023-12-20T12:15:05;268;261;
81998;PMS5003;71598;46.516;-122.928;2023-12-20T12:17:29;269;256;
81998;PMS5003;71598;46.516;-122.928;2023-12-20T12:20:02;283;277;
81998;PMS5003;71598;46.516;-122.928;2023-12-20T12:22:20;263;257;
81998;PMS5003;71598;46.516;-122.928;2023-12-20T12:24:45;256;242;
81998;PMS5003;71598;46.516;-122.928;2023-12-20T12:27:11;252;240;
81998;PMS5003;71598;46.516;-122.928;2023-12-20T12:29:36;253;237;
81998;PMS5003;71598;46.516;-122.928;2023-12-20T12:32:04;267;251;
81998;PMS5003;71598;46.516;-122.928;2023-12-20T12:34:27;264;250;
81998;PMS5003;71598;46.516;-122.928;2023-12-20T12:36:52;271;260;
81998;PMS5003;71598;46.516;-122.928;2023-12-20T12:39:17;258;248;
81998;PMS5003;71598;46.516;-122.928;2023-12-20T12:41:43;250;242;
81998;PMS5003;71598;46.516;-122.928;2023-12-20T12:44:09;248;240;
81998;PMS5003;71598;46.516;-122.928;2023-12-20T12:46:34;261;250;
81998;PMS5003;71598;46.516;-122.928;2023-12-20T12:49:00;259;237;
81998;PMS5003;71598;46.516;-122.928;2023-12-20T12:51:25;264;250;
81998;PMS5003;71598;46.516;-122.928;2023-12-20T12:53:52;251;242;
81998;PMS5003;71598;46.516;-122.928;2023-12-20T12:56:16;264;246;
81998;PMS5003;71598;46.516;-122.928;2023-12-20T12:58:42;246;232;
81998;PMS5003;71598;46.516;-122.928;2023-12-20T13:01:07;243;238;
81998;PMS5003;71598;46.516;-122.928;2023-12-20T13:03:33;231;226;
81998;PMS5003;71598;46.516;-122.928;2023-12-20T13:05:58;241;229;
81998;PMS5003;71598;46.516;-122.928;2023-12-20T13:08:23;233;219;
81998;PMS5003;71598;46.516;-122.928;2023-12-20T13:10:49;236;230;
81998;PMS5003;71598;46.516;-122.928;2023-12-20T13:13:15;242;231;
81998;PMS5003;71598;46.516;-122.928;2023-12-20T13:15:40;235;224;
81998;PMS5003;71598;46.516;-122.928;2023-12-20T13:18:05;252;236;
81998;PMS5003;71598;46.516;-122.928;2023-12-20T13:20:31;231;223;
81998;PMS5003;71598;46.516;-122.928;2023-12-20T13:22:57;230;220;
81998;PMS5003;71598;46.516;-122.928;2023-12-20T13:25:22;228;215;
81998;PMS5003;71598;46.516;-122.928;2023-12-20T13:27:48;231;222;
81998;PMS5003;71598;46.516;-122.928;2023-12-20T13:30:13;219;209;
81998;PMS5003;71598;46.516;-122.928;2023-12-20T13:32:39;213;206;
81998;PMS5003;71598;46.516;-122.928;2023-12-20T13:35:05;220;212;
81998;PMS5003;71598;46.516;-122.928;2023-12-20T13:37:30;219;208;
81998;PMS5003;71598;46.516;-122.928;2023-12-20T13:39:55;212;206;
81998;PMS5003;71598;46.516;-122.928;2023-12-20T13:42:21;222;209;
81998;PMS5003;71598;46.516;-122.928;2023-12-20T13:44:46;218;202;
81998;PMS5003;71598;46.516;-122.928;2023-12-20T13:47:12;217;203;
81998;PMS5003;71598;46.516;-122.928;2023-12-20T13:49:37;219;204;
81998;PMS5003;71598;46.516;-122.928;2023-12-20T13:52:02;214;202;
81998;PMS5003;71598;46.516;-122.928;2023-12-20T13:54:28;201;192;
81998;PMS5003;71598;46.516;-122.928;2023-12-20T13:56:54;210;200;
81998;PMS5003;71598;46.516;-122.928;2023-12-20T13:59:19;202;198;
81998;PMS5003;71598;46.516;-122.928;2023-12-20T14:01:45;199;192;
81998;PMS5003;71598;46.516;-122.928;2023-12-20T14:04:11;199;189;
81998;PMS5003;71598;46.516;-122.928;2023-12-20T14:06:36;204;195;
81998;PMS5003;71598;46.516;-122.928;2023-12-20T14:09:01;194;182;
81998;PMS5003;71598;46.516;-122.928;2023-12-20T14:11:27;182;176;
81998;PMS5003;71598;46.516;-122.928;2023-12-20T14:13:52;189;181;
81998;PMS5003;71598;46.516;-122.928;2023-12-20T14:16:17;181;171;
81998;PMS5003;71598;46.516;-122.928;2023-12-20T14:18:43;188;177;
81998;PMS5003;71598;46.516;-122.928;2023-12-20T14:21:09;183;173;
81998;PMS5003;71598;46.516;-122.928;2023-12-20T14:23:35;168;158;
81998;PMS5003;71598;46.516;-122.928;2023-12-20T14:26:00;172;164;
81998;PMS5003;71598;46.516;-122.928;2023-12-20T14:28:25;171;162;
81998;PMS5003;71598;46.516;-122.928;2023-12-20T14:30:50;163;159;
81998;PMS5003;71598;46.516;-122.928;2023-12-20T14:33:16;160;154;
81998;PMS5003;71598;46.516;-122.928;2023-12-20T14:35:41;174;163;
81998;PMS5003;71598;46.516;-122.928;2023-12-20T14:38:07;166;156;
81998;PMS5003;71598;46.516;-122.928;2023-12-20T14:40:32;155;152;
81998;PMS5003;71598;46.516;-122.928;2023-12-20T14:42:57;154;149;
81998;PMS5003;71598;46.516;-122.928;2023-12-20T14:45:22;156;148;
81998;PMS5003;71598;46.516;-122.928;2023-12-20T14:47:48;157;147;
81998;PMS5003;71598;46.516;-122.928;2023-12-20T14:50:13;149;140;
81998;PMS5003;71598;46.516;-122.928;2023-12-20T14:52:38;154;146;